Time;durP1;ratioP1;P1;durP2;ratioP2;P2;SDS_P1;SDS_P2;PMS_P1;PMS_P2;Temp;Humidity;BMP_temperature;BMP_pressure;BME280_temperature;BME280_humidity;BME280_pressure;Samples;Min_cycle;Max_cycle;Signal;HPM_P1;HPM_P2
2023/06/24 00:01:40;;;;;;;8.88;7.95;;;16.70;99.90;;;;;;5130028;27;20039;-42
2023/06/24 00:04:05;;;;;;;8.77;7.90;;;16.60;99.90;;;;;;5119117;27;20046;-42
2023/06/24 00:06:31;;;;;;;9.43;8.35;;;16.60;99.90;;;;;;5122543;27;20400;-36
2023/06/24 00:09:00;;;;;;;9.60;8.18;;;16.50;99.90;;;;;;5126850;27;20043;-35
2023/06/24 00:11:29;;;;;;;9.02;8.13;;;16.50;99.90;;;;;;5126879;27;20043;-37
2023/06/24 00:13:55;;;;;;;11.00;7.90;;;16.50;99.90;;;;;;5121167;27;20122;-38
2023/06/24 00:16:26;;;;;;;9.48;8.48;;;16.40;99.90;;;;;;5119601;27;20126;-38
2023/06/24 00:18:52;;;;;;;8.40;7.53;;;16.40;99.90;;;;;;5107588;27;20035;-34
2023/06/24 00:21:19;;;;;;;9.40;8.40;;;16.40;99.90;;;;;;5100428;28;20036;-39
2023/06/24 00:23:45;;;;;;;8.98;8.05;;;16.30;99.90;;;;;;5106797;28;20040;-36
2023/06/24 00:26:10;;;;;;;9.30;8.50;;;16.30;99.90;;;;;;5106205;28;20508;-41
2023/06/24 00:28:36;;;;;;;9.13;7.95;;;16.30;99.90;;;;;;5084849;28;20056;-42
2023/06/24 00:31:02;;;;;;;9.63;8.60;;;16.20;99.90;;;;;;5106029;28;20393;-37
2023/06/24 00:33:28;;;;;;;7.95;7.20;;;16.20;99.90;;;;;;5101389;28;20536;-42
2023/06/24 00:35:56;;;;;;;8.93;7.85;;;16.20;99.90;;;;;;5091659;28;20063;-41
2023/06/24 00:38:22;;;;;;;9.68;8.07;;;16.20;99.90;;;;;;5091307;28;20039;-36
2023/06/24 00:40:47;;;;;;;8.75;7.85;;;16.10;99.90;;;;;;5108311;28;20035;-39
2023/06/24 00:43:13;;;;;;;11.05;7.72;;;16.10;99.90;;;;;;5109609;28;20511;-41
2023/06/24 00:45:39;;;;;;;8.40;7.60;;;16.00;99.90;;;;;;5105069;28;20028;-45
2023/06/24 00:48:06;;;;;;;8.82;8.02;;;16.00;99.90;;;;;;5102802;28;20106;-36
2023/06/24 00:50:32;;;;;;;8.65;7.55;;;16.00;99.90;;;;;;5107641;28;20089;-45
2023/06/24 00:52:58;;;;;;;11.45;8.63;;;16.00;99.90;;;;;;5100923;28;20431;-35
2023/06/24 00:55:24;;;;;;;8.48;7.63;;;15.90;99.90;;;;;;5110830;28;20566;-35
2023/06/24 00:57:52;;;;;;;9.35;8.43;;;15.90;99.90;;;;;;5109450;28;20413;-40
2023/06/24 01:00:20;;;;;;;9.25;7.63;;;15.90;99.90;;;;;;5109620;28;20541;-37
2023/06/24 01:02:50;;;;;;;8.77;7.85;;;15.80;99.90;;;;;;5103934;28;20036;-41
2023/06/24 01:05:16;;;;;;;8.68;7.65;;;15.80;99.90;;;;;;5111242;28;20054;-39
2023/06/24 01:07:43;;;;;;;8.68;7.78;;;15.80;99.90;;;;;;5108220;28;20035;-39
2023/06/24 01:10:09;;;;;;;9.65;7.93;;;15.70;99.90;;;;;;5109742;28;20039;-37
2023/06/24 01:12:40;;;;;;;10.13;9.10;;;15.80;99.90;;;;;;5106467;28;20062;-42
2023/06/24 01:15:08;;;;;;;11.02;8.68;;;15.80;99.90;;;;;;5107308;28;20081;-40
2023/06/24 01:18:09;;;;;;;12.00;10.75;;;15.70;99.90;;;;;;5114334;27;20415;-42
2023/06/24 01:20:58;;;;;;;11.95;10.40;;;15.70;99.90;;;;;;5108100;27;20044;-37
2023/06/24 01:23:43;;;;;;;10.93;9.77;;;15.60;99.90;;;;;;5084911;28;20043;-39
2023/06/24 01:26:42;;;;;;;9.98;8.95;;;15.60;99.90;;;;;;5098288;27;20051;-36
2023/06/24 01:29:44;;;;;;;11.43;10.23;;;15.50;99.90;;;;;;5106820;27;20510;-37
2023/06/24 01:32:33;;;;;;;11.20;9.57;;;15.50;99.90;;;;;;5104658;27;20039;-39
2023/06/24 01:35:05;;;;;;;13.27;10.02;;;15.40;99.90;;;;;;5115938;27;20434;-35
2023/06/24 01:37:47;;;;;;;11.50;9.77;;;15.40;99.90;;;;;;5094571;28;20089;-38
2023/06/24 01:40:26;;;;;;;11.30;9.70;;;15.50;99.90;;;;;;5110255;27;20039;-38
2023/06/24 01:42:53;;;;;;;12.75;9.20;;;15.40;99.90;;;;;;5117833;27;20040;-39
2023/06/24 01:45:26;;;;;;;11.15;9.60;;;15.40;99.90;;;;;;5108942;27;20037;-36
2023/06/24 01:48:07;;;;;;;11.57;9.40;;;15.40;99.90;;;;;;5108751;27;20032;-35
2023/06/24 01:50:35;;;;;;;12.68;9.40;;;15.40;99.90;;;;;;5113384;27;20516;-39
2023/06/24 01:53:05;;;;;;;10.32;8.93;;;15.40;99.90;;;;;;5108129;27;20543;-38
2023/06/24 01:55:33;;;;;;;11.38;9.25;;;15.40;99.90;;;;;;5110949;27;20427;-38
2023/06/24 01:58:01;;;;;;;10.60;9.48;;;15.40;99.90;;;;;;5120212;27;20050;-38
2023/06/24 02:00:29;;;;;;;9.98;8.60;;;15.40;99.90;;;;;;5112636;27;20331;-40
2023/06/24 02:02:55;;;;;;;10.35;9.13;;;15.30;99.90;;;;;;5114698;27;20387;-45
2023/06/24 02:05:22;;;;;;;10.40;9.40;;;15.20;99.90;;;;;;5095224;28;20047;-39
2023/06/24 02:07:51;;;;;;;11.13;10.02;;;15.20;99.90;;;;;;5096723;27;20174;-38
2023/06/24 02:10:18;;;;;;;11.50;9.85;;;15.20;99.90;;;;;;5117315;27;20069;-41
2023/06/24 02:12:46;;;;;;;11.73;9.57;;;15.20;99.90;;;;;;5095654;28;20039;-41
2023/06/24 02:15:12;;;;;;;11.60;10.20;;;15.10;99.90;;;;;;5119701;27;20092;-36
2023/06/24 02:17:39;;;;;;;12.10;10.05;;;15.10;99.90;;;;;;5106386;27;20035;-35
2023/06/24 02:20:08;;;;;;;12.40;10.02;;;15.10;99.90;;;;;;5097137;28;20601;-38
2023/06/24 02:22:35;;;;;;;11.38;9.43;;;15.10;99.90;;;;;;5113496;27;20042;-35
2023/06/24 02:25:02;;;;;;;11.48;9.85;;;15.00;99.90;;;;;;5102131;27;20039;-40
2023/06/24 02:27:29;;;;;;;9.82;8.82;;;15.00;99.90;;;;;;5109285;27;20043;-37
2023/06/24 02:29:56;;;;;;;13.60;10.38;;;15.00;99.90;;;;;;5109934;27;20044;-35
2023/06/24 02:32:22;;;;;;;11.73;9.98;;;15.00;99.90;;;;;;5111433;27;20082;-37
2023/06/24 02:34:47;;;;;;;12.10;10.80;;;15.00;99.90;;;;;;5114036;27;20400;-39
2023/06/24 02:37:13;;;;;;;13.82;10.10;;;15.00;99.90;;;;;;5099431;28;20046;-42
2023/06/24 02:39:43;;;;;;;11.43;10.30;;;15.00;99.90;;;;;;5101945;28;20153;-37
2023/06/24 02:42:11;;;;;;;18.15;12.45;;;15.00;99.90;;;;;;5100336;28;20110;-44
2023/06/24 02:44:38;;;;;;;13.70;11.68;;;15.00;99.90;;;;;;5107304;28;20047;-37
2023/06/24 02:47:07;;;;;;;11.73;10.52;;;15.10;99.90;;;;;;5105944;28;20051;-36
2023/06/24 02:49:34;;;;;;;13.63;11.05;;;15.10;99.90;;;;;;5092529;28;20078;-37
2023/06/24 02:52:00;;;;;;;14.63;11.13;;;15.10;99.90;;;;;;5107513;28;20047;-39
2023/06/24 02:54:26;;;;;;;13.98;11.52;;;15.10;99.90;;;;;;5091997;28;20029;-40
2023/06/24 02:56:52;;;;;;;15.15;12.20;;;15.10;99.90;;;;;;5102295;28;20424;-41
2023/06/24 02:59:22;;;;;;;15.60;12.00;;;15.10;99.90;;;;;;5101125;27;20463;-41
2023/06/24 03:01:47;;;;;;;14.63;11.02;;;15.10;99.90;;;;;;5114163;27;20038;-39
2023/06/24 03:04:13;;;;;;;14.55;11.52;;;15.10;99.90;;;;;;5104529;28;20036;-35
2023/06/24 03:06:40;;;;;;;16.23;11.65;;;15.10;99.90;;;;;;5097390;28;20086;-37
2023/06/24 03:09:07;;;;;;;16.13;12.18;;;15.10;99.90;;;;;;5100328;28;20439;-35
2023/06/24 03:11:43;;;;;;;13.77;12.32;;;15.10;99.90;;;;;;5098977;28;20032;-36
2023/06/24 03:14:10;;;;;;;15.57;12.00;;;15.10;99.90;;;;;;5098399;28;20362;-37
2023/06/24 03:16:38;;;;;;;18.85;12.65;;;15.20;99.90;;;;;;5103892;28;20051;-37
2023/06/24 03:19:04;;;;;;;14.88;11.10;;;15.20;99.90;;;;;;5103208;28;20048;-38
2023/06/24 03:21:30;;;;;;;11.73;10.43;;;15.20;99.90;;;;;;5106483;28;20036;-37
2023/06/24 03:23:56;;;;;;;14.65;11.52;;;15.20;99.90;;;;;;5090478;28;20044;-35
2023/06/24 03:26:22;;;;;;;15.38;12.13;;;15.20;99.90;;;;;;5113877;28;20402;-35
2023/06/24 03:28:48;;;;;;;14.43;12.93;;;15.20;99.90;;;;;;5113518;28;20114;-35
2023/06/24 03:31:15;;;;;;;15.43;12.27;;;15.10;99.90;;;;;;5127989;28;20049;-41
2023/06/24 03:33:45;;;;;;;14.77;12.13;;;15.10;99.90;;;;;;5101554;28;20032;-41
2023/06/24 03:36:11;;;;;;;12.88;11.20;;;15.10;99.90;;;;;;5108991;28;20540;-39
2023/06/24 03:38:37;;;;;;;14.93;12.23;;;15.10;99.90;;;;;;5091150;28;20044;-35
2023/06/24 03:41:02;;;;;;;17.80;11.85;;;15.10;99.90;;;;;;5108407;28;20039;-36
2023/06/24 03:43:28;;;;;;;13.32;11.80;;;15.10;99.90;;;;;;5111383;28;20047;-38
2023/06/24 03:45:54;;;;;;;14.77;12.63;;;15.10;99.90;;;;;;5101742;28;20489;-38
2023/06/24 03:48:23;;;;;;;18.40;13.00;;;15.20;99.90;;;;;;5103425;28;20436;-39
2023/06/24 03:50:49;;;;;;;15.98;11.93;;;15.20;99.90;;;;;;5109410;28;20031;-38
2023/06/24 03:53:14;;;;;;;15.43;13.00;;;15.20;99.90;;;;;;5114323;28;20059;-35
2023/06/24 03:55:40;;;;;;;16.52;12.90;;;15.20;99.90;;;;;;5088164;28;20079;-40
2023/06/24 03:58:06;;;;;;;15.00;12.80;;;15.20;99.90;;;;;;5117545;28;20132;-37
2023/06/24 04:00:31;;;;;;;18.35;13.23;;;15.30;99.90;;;;;;5113626;28;20043;-34
2023/06/24 04:03:00;;;;;;;16.60;13.18;;;15.30;99.90;;;;;;5113232;27;20036;-34
2023/06/24 04:05:26;;;;;;;15.52;12.55;;;15.40;99.90;;;;;;5118040;27;20122;-34
2023/06/24 04:07:53;;;;;;;15.25;12.85;;;15.40;99.90;;;;;;5117668;27;22011;-33
2023/06/24 04:10:19;;;;;;;15.00;12.65;;;15.40;99.90;;;;;;5089088;28;20492;-32
2023/06/24 04:12:45;;;;;;;14.27;12.75;;;15.40;99.90;;;;;;5112312;28;20084;-34
2023/06/24 04:15:11;;;;;;;15.02;12.05;;;15.40;99.90;;;;;;5113224;28;20039;-35
2023/06/24 04:17:37;;;;;;;15.73;12.18;;;15.40;99.90;;;;;;5112468;28;20069;-40
2023/06/24 04:20:06;;;;;;;16.42;13.88;;;15.50;99.90;;;;;;5112875;28;20036;-32
2023/06/24 04:22:41;;;;;;;16.92;14.30;;;15.40;99.90;;;;;;5093984;28;20054;-35
2023/06/24 04:25:07;;;;;;;15.35;13.35;;;15.50;99.90;;;;;;5113036;28;20393;-32
2023/06/24 04:27:34;;;;;;;15.15;12.73;;;15.50;99.90;;;;;;5112410;28;20040;-36
2023/06/24 04:30:00;;;;;;;15.60;13.55;;;15.50;99.90;;;;;;5109750;28;20032;-35
2023/06/24 04:32:26;;;;;;;14.38;11.93;;;15.60;99.90;;;;;;5091682;28;20728;-31
2023/06/24 04:34:52;;;;;;;16.08;12.60;;;15.60;99.90;;;;;;5093277;28;20035;-35
2023/06/24 04:37:18;;;;;;;15.88;13.23;;;15.80;99.90;;;;;;5112551;28;20043;-36
2023/06/24 04:39:44;;;;;;;15.95;13.18;;;15.80;99.90;;;;;;5112251;28;20035;-34
2023/06/24 04:42:10;;;;;;;17.23;13.45;;;15.90;99.90;;;;;;5112356;28;20044;-35
2023/06/24 04:44:36;;;;;;;16.00;12.85;;;16.00;99.90;;;;;;5112041;28;20048;-34
2023/06/24 04:47:02;;;;;;;14.93;12.32;;;16.10;99.90;;;;;;5110878;28;20040;-33
2023/06/24 04:49:28;;;;;;;16.75;13.60;;;16.20;99.90;;;;;;5106995;28;20039;-34
2023/06/24 04:51:53;;;;;;;14.60;13.02;;;16.20;99.90;;;;;;5106789;28;20038;-32
2023/06/24 04:54:19;;;;;;;14.40;12.90;;;16.30;99.90;;;;;;5106864;28;20115;-32
2023/06/24 04:56:45;;;;;;;17.15;12.57;;;16.30;99.90;;;;;;5107101;28;20035;-35
2023/06/24 04:59:11;;;;;;;15.38;12.23;;;16.40;99.90;;;;;;5107951;28;20390;-35
2023/06/24 05:01:37;;;;;;;15.45;12.90;;;16.40;99.90;;;;;;5108317;28;20353;-36
2023/06/24 05:04:02;;;;;;;14.82;12.90;;;16.50;99.90;;;;;;5111781;28;20039;-38
2023/06/24 05:06:28;;;;;;;15.77;13.02;;;16.60;99.90;;;;;;5111927;28;20084;-33
2023/06/24 05:08:54;;;;;;;16.35;13.27;;;16.70;99.90;;;;;;5111866;28;20067;-35
2023/06/24 05:11:19;;;;;;;14.40;12.80;;;16.70;99.90;;;;;;5111668;28;20032;-31
2023/06/24 05:13:45;;;;;;;15.20;12.82;;;16.80;99.90;;;;;;5111669;28;20482;-35
2023/06/24 05:16:11;;;;;;;14.63;12.40;;;16.90;99.90;;;;;;5112111;28;20068;-35
2023/06/24 05:18:36;;;;;;;13.65;11.95;;;16.90;99.90;;;;;;5111667;28;20126;-35
2023/06/24 05:21:02;;;;;;;15.05;12.95;;;17.00;99.90;;;;;;5112305;28;20042;-32
2023/06/24 05:23:28;;;;;;;15.70;13.32;;;17.10;99.90;;;;;;5076763;28;20040;-31
2023/06/24 05:25:53;;;;;;;15.75;13.02;;;17.20;99.90;;;;;;5112057;28;20047;-34
2023/06/24 05:28:19;;;;;;;13.85;12.30;;;17.20;99.90;;;;;;5093911;28;20088;-36
2023/06/24 05:30:46;;;;;;;14.82;12.75;;;17.30;99.90;;;;;;5111704;28;20151;-38
2023/06/24 05:33:11;;;;;;;16.95;12.63;;;17.40;99.90;;;;;;5111716;28;20042;-34
2023/06/24 05:35:40;;;;;;;16.45;13.43;;;17.50;99.90;;;;;;5112024;28;20036;-34
2023/06/24 05:38:06;;;;;;;16.85;13.23;;;17.60;99.90;;;;;;5112237;28;20609;-35
2023/06/24 05:40:32;;;;;;;14.48;12.93;;;17.80;99.90;;;;;;5093550;28;20282;-36
2023/06/24 05:42:57;;;;;;;15.23;12.57;;;17.90;99.90;;;;;;5112081;28;20093;-35
2023/06/24 05:45:23;;;;;;;15.48;13.82;;;18.10;99.90;;;;;;5112059;28;20039;-35
2023/06/24 05:47:49;;;;;;;16.17;13.52;;;18.20;99.90;;;;;;5111747;28;20047;-34
2023/06/24 05:50:17;;;;;;;16.40;13.90;;;18.30;99.90;;;;;;5111214;28;20081;-33
2023/06/24 05:52:43;;;;;;;15.70;13.57;;;18.40;99.90;;;;;;5111532;28;20032;-36
2023/06/24 05:55:09;;;;;;;18.58;13.88;;;18.50;99.90;;;;;;5092555;28;20043;-35
2023/06/24 05:57:38;;;;;;;15.05;13.50;;;18.60;99.90;;;;;;5092836;28;20071;-32
2023/06/24 06:00:04;;;;;;;16.20;13.63;;;18.70;99.90;;;;;;5110693;28;20123;-37
2023/06/24 06:02:30;;;;;;;18.58;13.75;;;18.80;99.90;;;;;;5110878;28;20043;-36
2023/06/24 06:05:01;;;;;;;14.85;13.35;;;18.90;99.90;;;;;;5110735;28;20039;-37
2023/06/24 06:07:27;;;;;;;15.05;13.07;;;19.00;99.90;;;;;;5092800;28;20097;-34
2023/06/24 06:09:52;;;;;;;14.90;13.38;;;19.10;99.90;;;;;;5110836;28;20192;-37
2023/06/24 06:12:21;;;;;;;14.10;12.57;;;19.20;99.90;;;;;;5090167;28;20047;-37
2023/06/24 06:14:47;;;;;;;15.50;13.90;;;19.40;99.90;;;;;;5090446;28;20032;-33
2023/06/24 06:17:14;;;;;;;15.85;13.52;;;19.40;99.90;;;;;;5089679;28;20043;-36
2023/06/24 06:19:41;;;;;;;16.95;13.63;;;19.60;99.90;;;;;;5089914;28;20043;-34
2023/06/24 06:22:07;;;;;;;15.20;12.48;;;19.70;99.90;;;;;;5090240;28;20032;-35
2023/06/24 06:24:33;;;;;;;15.45;12.45;;;19.80;99.90;;;;;;5090086;28;20040;-35
2023/06/24 06:26:59;;;;;;;15.75;12.45;;;19.90;99.90;;;;;;5090297;28;20036;-36
2023/06/24 06:29:25;;;;;;;14.80;13.07;;;20.10;99.90;;;;;;5090764;28;20098;-36
2023/06/24 06:31:52;;;;;;;14.40;12.68;;;20.10;99.90;;;;;;5073914;28;20032;-37
2023/06/24 06:34:18;;;;;;;13.38;11.98;;;20.30;99.90;;;;;;5089226;28;20048;-35
2023/06/24 06:36:44;;;;;;;14.60;13.10;;;20.30;99.90;;;;;;5105984;28;20043;-37
2023/06/24 06:39:09;;;;;;;14.55;12.00;;;20.40;99.90;;;;;;5110213;28;20039;-38
2023/06/24 06:41:35;;;;;;;14.10;12.65;;;20.50;99.90;;;;;;5092185;28;20130;-36
2023/06/24 06:44:03;;;;;;;13.20;11.85;;;20.60;99.90;;;;;;5091680;28;20071;-35
2023/06/24 06:46:29;;;;;;;14.18;11.98;;;20.70;99.90;;;;;;5074623;28;20488;-35
2023/06/24 06:48:55;;;;;;;14.45;12.32;;;20.80;99.90;;;;;;5075037;28;20036;-35
2023/06/24 06:51:21;;;;;;;12.77;11.45;;;20.90;99.90;;;;;;5075296;28;20530;-38
2023/06/24 06:53:47;;;;;;;14.75;11.85;;;21.00;99.90;;;;;;5110177;28;20073;-33
2023/06/24 06:56:25;;;;;;;11.50;10.30;;;21.10;99.90;;;;;;5110458;28;20063;-31
2023/06/24 06:58:51;;;;;;;12.23;11.02;;;21.30;99.90;;;;;;5109776;28;20089;-33
2023/06/24 07:01:20;;;;;;;11.05;10.05;;;21.40;99.90;;;;;;5109871;28;20039;-36
2023/06/24 07:03:46;;;;;;;10.95;9.85;;;21.50;99.90;;;;;;5109576;28;20043;-36
2023/06/24 07:06:12;;;;;;;13.63;10.52;;;21.60;99.90;;;;;;5091776;28;20036;-36
2023/06/24 07:08:37;;;;;;;13.40;10.48;;;21.70;99.90;;;;;;5110105;28;20036;-38
2023/06/24 07:11:03;;;;;;;10.57;9.48;;;21.90;99.90;;;;;;5110024;28;20036;-33
2023/06/24 07:13:29;;;;;;;10.82;9.50;;;22.00;99.90;;;;;;5109708;28;20035;-33
2023/06/24 07:15:55;;;;;;;10.85;9.82;;;22.10;99.90;;;;;;5091824;28;20063;-33
2023/06/24 07:18:20;;;;;;;12.13;10.25;;;22.30;99.90;;;;;;5088504;28;20428;-35
2023/06/24 07:20:46;;;;;;;12.27;10.10;;;22.40;99.90;;;;;;5088850;28;20089;-37
2023/06/24 07:23:12;;;;;;;12.02;10.90;;;22.50;99.90;;;;;;5090381;28;20035;-37
2023/06/24 07:25:37;;;;;;;10.95;9.93;;;22.60;99.90;;;;;;5090109;28;20540;-35
2023/06/24 07:28:03;;;;;;;10.70;9.70;;;22.80;99.90;;;;;;5089668;28;20051;-34
2023/06/24 07:30:29;;;;;;;11.93;10.10;;;22.90;99.90;;;;;;5089796;28;20059;-35
2023/06/24 07:32:55;;;;;;;11.15;9.98;;;23.10;99.90;;;;;;5090227;28;20036;-35
2023/06/24 07:35:21;;;;;;;11.55;10.27;;;23.20;99.90;;;;;;5090574;28;20029;-40
2023/06/24 07:37:46;;;;;;;11.23;10.07;;;23.30;99.90;;;;;;5093626;28;20423;-35
2023/06/24 07:40:12;;;;;;;10.52;9.48;;;23.40;99.90;;;;;;5093193;28;20431;-35
2023/06/24 07:42:38;;;;;;;10.50;9.50;;;23.60;99.90;;;;;;5093339;28;20075;-34
2023/06/24 07:45:04;;;;;;;11.80;9.35;;;23.60;99.90;;;;;;5093332;28;20516;-36
2023/06/24 07:47:31;;;;;;;10.98;9.70;;;23.80;99.90;;;;;;5093431;28;20044;-39
2023/06/24 07:49:57;;;;;;;10.23;9.27;;;23.90;99.90;;;;;;5091619;28;20082;-36
2023/06/24 07:52:23;;;;;;;11.32;10.20;;;24.10;99.90;;;;;;5093247;28;20036;-38
2023/06/24 07:54:49;;;;;;;11.88;10.25;;;24.30;99.90;;;;;;5093311;28;20060;-36
2023/06/24 07:57:14;;;;;;;12.32;10.15;;;24.40;99.90;;;;;;5093177;28;20485;-35
2023/06/24 07:59:40;;;;;;;10.88;8.90;;;24.50;99.90;;;;;;5074732;28;20394;-32
2023/06/24 08:02:06;;;;;;;10.50;9.18;;;24.70;99.90;;;;;;5093052;28;20485;-35
2023/06/24 08:04:32;;;;;;;10.32;9.05;;;24.80;99.90;;;;;;5092815;28;20047;-36
2023/06/24 08:06:57;;;;;;;9.98;8.98;;;25.00;99.90;;;;;;5093058;28;20036;-36
2023/06/24 08:09:23;;;;;;;10.13;8.98;;;25.10;99.90;;;;;;5092319;28;20110;-35
2023/06/24 08:11:49;;;;;;;11.52;10.05;;;25.20;99.90;;;;;;5093416;28;20039;-36
2023/06/24 08:14:14;;;;;;;10.80;8.98;;;25.40;99.90;;;;;;5092989;28;20109;-33
2023/06/24 08:16:40;;;;;;;10.60;9.48;;;25.50;99.90;;;;;;5093288;28;20036;-37
2023/06/24 08:19:06;;;;;;;12.45;10.20;;;25.70;99.90;;;;;;5112389;28;20043;-36
2023/06/24 08:21:32;;;;;;;12.10;10.25;;;25.70;99.90;;;;;;5112350;28;20047;-38
2023/06/24 08:23:58;;;;;;;11.00;10.00;;;25.60;99.90;;;;;;5101490;27;20068;-40
2023/06/24 08:26:24;;;;;;;10.30;9.07;;;25.70;99.90;;;;;;5103506;27;20082;-40
2023/06/24 08:28:49;;;;;;;13.55;10.75;;;25.70;99.90;;;;;;5114583;27;20032;-36
2023/06/24 08:31:15;;;;;;;10.45;9.45;;;25.80;99.90;;;;;;5083008;28;20043;-43
2023/06/24 08:33:46;;;;;;;11.20;10.02;;;26.00;99.90;;;;;;5110195;27;20038;-44
2023/06/24 08:36:12;;;;;;;12.75;9.95;;;26.10;99.90;;;;;;5102595;27;20060;-39
2023/06/24 08:38:37;;;;;;;10.00;9.00;;;26.30;99.90;;;;;;5100653;27;20036;-41
2023/06/24 08:41:03;;;;;;;12.80;11.50;;;26.60;99.90;;;;;;5083352;28;20035;-43
2023/06/24 08:43:29;;;;;;;12.30;10.98;;;26.70;99.90;;;;;;5088705;28;20119;-37
2023/06/24 08:45:55;;;;;;;11.57;10.38;;;26.80;99.90;;;;;;5102760;28;20028;-38
2023/06/24 08:48:24;;;;;;;12.07;10.05;;;26.90;99.90;;;;;;5109297;27;20048;-41
2023/06/24 08:50:55;;;;;;;10.70;9.32;;;27.00;99.90;;;;;;5110383;27;20076;-47
2023/06/24 08:53:22;;;;;;;9.65;7.78;;;27.10;99.90;;;;;;5110469;27;20109;-38
2023/06/24 08:55:53;;;;;;;13.52;9.57;;;27.10;99.30;;;;;;5088660;27;20386;-44
2023/06/24 08:58:18;;;;;;;9.75;8.85;;;27.30;97.90;;;;;;5093506;27;20515;-38
2023/06/24 09:00:48;;;;;;;9.02;7.80;;;27.50;97.30;;;;;;5112774;27;20031;-40
2023/06/24 09:03:14;;;;;;;9.45;8.50;;;27.80;96.20;;;;;;5079673;28;20109;-43
2023/06/24 09:05:40;;;;;;;9.63;8.70;;;28.00;95.60;;;;;;5108737;27;20036;-44
2023/06/24 09:08:05;;;;;;;9.45;8.52;;;28.10;93.30;;;;;;5093840;27;20515;-38
2023/06/24 09:10:32;;;;;;;9.80;8.57;;;28.10;90.90;;;;;;5111264;27;20038;-38
2023/06/24 09:12:58;;;;;;;8.50;7.63;;;28.20;90.60;;;;;;5109295;27;20041;-40
2023/06/24 09:15:24;;;;;;;8.95;7.50;;;28.20;89.60;;;;;;5105981;28;20055;-45
2023/06/24 09:17:50;;;;;;;9.93;7.70;;;28.20;85.70;;;;;;5115167;27;20043;-38
2023/06/24 09:20:20;;;;;;;9.10;8.20;;;28.10;83.10;;;;;;5108397;28;20043;-39
2023/06/24 09:22:46;;;;;;;8.38;7.43;;;28.20;82.10;;;;;;5115994;27;20032;-36
2023/06/24 09:25:19;;;;;;;8.27;6.97;;;28.20;81.60;;;;;;5092732;28;20482;-39
2023/06/24 09:27:52;;;;;;;6.35;5.75;;;28.30;80.90;;;;;;5072897;28;20046;-36
2023/06/24 09:30:20;;;;;;;6.65;5.97;;;28.30;79.20;;;;;;5091721;28;20114;-37
2023/06/24 09:32:47;;;;;;;6.15;5.57;;;28.40;79.00;;;;;;5091761;28;20105;-36
2023/06/24 09:35:13;;;;;;;5.68;5.05;;;28.40;77.30;;;;;;5093530;28;20406;-34
2023/06/24 09:37:39;;;;;;;5.45;4.90;;;28.60;76.10;;;;;;5105652;28;20047;-36
2023/06/24 09:40:06;;;;;;;8.35;7.07;;;28.70;73.70;;;;;;5112176;28;20035;-38
2023/06/24 09:42:32;;;;;;;6.47;5.80;;;28.80;73.40;;;;;;5112566;28;20088;-38
2023/06/24 09:44:58;;;;;;;7.15;6.07;;;28.90;71.80;;;;;;5111852;28;20393;-41
2023/06/24 09:47:25;;;;;;;6.63;6.00;;;29.00;71.10;;;;;;5112342;28;20035;-40
2023/06/24 09:50:03;;;;;;;6.25;5.68;;;28.90;69.10;;;;;;5109248;28;20035;-36
2023/06/24 09:52:29;;;;;;;11.68;7.20;;;29.00;66.60;;;;;;5110314;28;20122;-37
2023/06/24 09:54:55;;;;;;;7.07;6.47;;;29.00;68.90;;;;;;5109309;28;20532;-37
2023/06/24 09:57:28;;;;;;;8.68;6.80;;;29.00;68.80;;;;;;5108325;28;20537;-37
2023/06/24 09:59:56;;;;;;;6.95;5.78;;;29.30;67.40;;;;;;5090791;28;20044;-38
2023/06/24 10:02:23;;;;;;;5.35;4.85;;;29.60;66.30;;;;;;5094536;28;20039;-37
2023/06/24 10:04:51;;;;;;;6.45;5.85;;;29.70;64.60;;;;;;5107074;28;20050;-38
2023/06/24 10:07:17;;;;;;;5.28;4.78;;;29.80;65.10;;;;;;5111031;28;20051;-40
2023/06/24 10:09:43;;;;;;;5.50;5.00;;;30.00;65.80;;;;;;5110337;28;20084;-39
2023/06/24 10:12:10;;;;;;;5.57;5.18;;;29.60;62.20;;;;;;5110696;28;20047;-39
2023/06/24 10:14:36;;;;;;;5.03;4.55;;;29.70;62.30;;;;;;5110871;28;20096;-35
2023/06/24 10:17:05;;;;;;;5.78;4.65;;;29.90;62.60;;;;;;5110479;28;20051;-36
2023/06/24 10:19:39;;;;;;;5.43;4.78;;;30.10;60.80;;;;;;5048992;28;20076;-37
2023/06/24 10:22:10;;;;;;;4.47;4.07;;;30.30;59.40;;;;;;5068568;28;20036;-35
2023/06/24 10:24:39;;;;;;;5.30;4.80;;;30.40;59.00;;;;;;5070410;28;20044;-35
2023/06/24 10:27:13;;;;;;;5.10;4.70;;;30.60;58.20;;;;;;5070080;28;20041;-39
2023/06/24 10:29:39;;;;;;;4.55;3.97;;;30.70;56.50;;;;;;5070113;28;20040;-39
2023/06/24 10:32:08;;;;;;;3.88;3.47;;;30.70;57.00;;;;;;5069873;28;20029;-37
2023/06/24 10:34:37;;;;;;;5.03;3.75;;;30.70;56.60;;;;;;5067477;28;20115;-33
2023/06/24 10:37:09;;;;;;;4.30;3.90;;;30.80;55.50;;;;;;5090154;28;20504;-41
2023/06/24 10:39:54;;;;;;;6.75;4.13;;;30.90;55.20;;;;;;5086850;28;20040;-41
2023/06/24 10:42:38;;;;;;;3.80;3.50;;;31.10;54.90;;;;;;5090055;28;20051;-37
2023/06/24 10:45:10;;;;;;;6.00;4.00;;;31.30;55.50;;;;;;5090169;28;20379;-39
2023/06/24 10:47:56;;;;;;;4.30;4.00;;;31.30;55.20;;;;;;5096692;28;20045;-38
2023/06/24 10:50:23;;;;;;;5.53;4.15;;;31.20;55.20;;;;;;5069712;28;20082;-39
2023/06/24 10:52:55;;;;;;;4.38;3.97;;;31.10;54.50;;;;;;5069905;28;20040;-37
2023/06/24 10:55:24;;;;;;;5.07;3.92;;;31.20;54.30;;;;;;5069608;28;20071;-35
2023/06/24 10:57:50;;;;;;;4.10;3.80;;;31.10;53.90;;;;;;5068318;28;20418;-38
2023/06/24 11:00:16;;;;;;;4.70;4.18;;;31.20;54.30;;;;;;5089463;28;20047;-38
2023/06/24 11:02:42;;;;;;;4.50;4.10;;;31.20;52.70;;;;;;5089982;28;20032;-41
2023/06/24 11:05:08;;;;;;;5.30;4.78;;;31.20;52.40;;;;;;5090022;28;20116;-37
2023/06/24 11:07:36;;;;;;;6.22;5.03;;;31.20;52.20;;;;;;5089996;28;20040;-39
2023/06/24 11:10:14;;;;;;;5.95;4.65;;;31.10;51.40;;;;;;5064725;28;20284;-38
2023/06/24 11:12:41;;;;;;;5.15;4.65;;;31.30;52.00;;;;;;5089804;28;20039;-35
2023/06/24 11:15:10;;;;;;;5.90;5.30;;;31.40;52.80;;;;;;5090294;28;20032;-38
2023/06/24 11:17:37;;;;;;;5.38;4.70;;;31.60;51.50;;;;;;5096308;28;20055;-38
2023/06/24 11:20:13;;;;;;;5.28;4.88;;;31.70;52.00;;;;;;5110547;28;20040;-39
2023/06/24 11:22:43;;;;;;;4.90;4.50;;;32.00;51.00;;;;;;5109870;28;20039;-39
2023/06/24 11:25:21;;;;;;;4.32;3.95;;;32.00;50.80;;;;;;5110099;28;20094;-39
2023/06/24 11:27:47;;;;;;;4.43;4.05;;;32.20;52.70;;;;;;5091352;28;20047;-39
2023/06/24 11:30:13;;;;;;;4.28;3.95;;;32.70;52.70;;;;;;5110333;28;20121;-38
2023/06/24 11:32:41;;;;;;;4.13;3.75;;;32.90;51.40;;;;;;5109831;28;20043;-40
2023/06/24 11:35:12;;;;;;;3.67;3.33;;;32.90;50.50;;;;;;5105987;28;20028;-39
2023/06/24 11:37:42;;;;;;;4.40;3.83;;;33.00;49.50;;;;;;5090144;28;20036;-39
2023/06/24 11:40:11;;;;;;;4.60;3.67;;;33.20;49.30;;;;;;5091314;28;20051;-39
2023/06/24 11:42:41;;;;;;;4.30;3.90;;;33.20;48.30;;;;;;5072890;28;20131;-38
2023/06/24 11:45:12;;;;;;;3.97;3.50;;;33.50;48.50;;;;;;5091147;28;20064;-39
2023/06/24 11:47:39;;;;;;;5.85;3.83;;;34.00;47.90;;;;;;5090710;28;20075;-39
2023/06/24 11:50:06;;;;;;;4.05;3.75;;;34.10;48.50;;;;;;5071980;28;20044;-39
2023/06/24 11:52:37;;;;;;;4.25;3.85;;;34.20;47.60;;;;;;5090620;28;20111;-39
2023/06/24 11:55:24;;;;;;;4.20;3.60;;;34.50;47.10;;;;;;5090023;28;20047;-38
2023/06/24 11:58:04;;;;;;;12.20;3.70;;;34.50;46.30;;;;;;5089462;28;20094;-39
2023/06/24 12:00:32;;;;;;;3.88;3.58;;;34.30;45.10;;;;;;5089927;28;20511;-40
2023/06/24 12:03:01;;;;;;;4.30;3.58;;;34.10;45.60;;;;;;5108721;28;20039;-42
2023/06/24 12:05:35;;;;;;;3.88;3.55;;;34.10;45.60;;;;;;5110333;28;20036;-41
2023/06/24 12:08:10;;;;;;;4.55;3.75;;;34.40;45.60;;;;;;5110297;28;20126;-38
2023/06/24 12:10:36;;;;;;;4.68;3.60;;;34.60;45.50;;;;;;5110359;28;20032;-40
2023/06/24 12:13:05;;;;;;;3.80;3.50;;;34.60;46.70;;;;;;5110443;28;20043;-38
2023/06/24 12:15:32;;;;;;;4.18;3.63;;;34.80;45.60;;;;;;5110663;28;20587;-35
2023/06/24 12:17:58;;;;;;;5.70;4.30;;;34.60;45.10;;;;;;5066625;28;20040;-38
2023/06/24 12:20:25;;;;;;;3.53;3.22;;;34.20;44.90;;;;;;5109943;28;20050;-40
2023/06/24 12:22:51;;;;;;;3.72;3.38;;;34.50;46.00;;;;;;5112752;28;20036;-37
2023/06/24 12:25:17;;;;;;;3.55;3.30;;;35.00;45.90;;;;;;5114112;28;20391;-38
2023/06/24 12:27:46;;;;;;;4.53;4.20;;;34.50;44.40;;;;;;5113766;28;20108;-41
2023/06/24 12:30:13;;;;;;;4.20;3.75;;;34.00;44.20;;;;;;5113698;28;20064;-37
2023/06/24 12:32:39;;;;;;;5.30;3.72;;;33.30;45.10;;;;;;5113911;28;20127;-37
2023/06/24 12:35:08;;;;;;;4.05;3.33;;;32.80;45.50;;;;;;5113688;28;20031;-38
2023/06/24 12:37:35;;;;;;;3.38;3.17;;;32.70;46.00;;;;;;5113774;28;20568;-35
2023/06/24 12:40:02;;;;;;;3.83;3.47;;;33.20;46.50;;;;;;5102806;28;20065;-40